Etusivu
METAR-TAF:

METAR-TAF

Lentoasemat :

Glasgow Municipal Airport

Glasgow, Kentucky, Yhdysvallat

Leveyspiiri: 37-01-54N, Pituuspiiri: 085-57-13W, korkeus merenpinnasta: 218 m

Tämänhetkinen sää

Tämä raportti tehtiin 19 minuuttia sitten, kello 23.15 UTC
tyyntä
Lämpötila 5°C
Kosteus 87%
Ilmanpaine 1014 hPa
Näkyvyys: 16.1 km
selkeää

METAR: KGLW 212315Z AUTO 00000KT 10SM CLR 05/03 A2995 RMK AO2 T00490030

Aika: 17:34 (23:34 UTC)


TAF: puuttuu

Säähavainnot ja -ennusteet yli 4000 lentoasemalta (METAR- ja TAF-raportit).

Käytössä olevat sääasemat on merkitty karttaan keltaisilla ja punaisilla pisteillä.

Aseta hiiri pisteen päälle nähdäksesi sääaseman nimen.

Klikkaa sitten nähdäksesi säähavainnot ja -ennusteet.

Kartan vaihtaminen: klikkaa mustalla rastilla varustettuja vihreitä pisteitä, niin voit zoomata sisään; viivalla varustettua vihreää pistettä, niin voit zoomata ulos tai vihreitä nuolia, niin pääset viereisille kartoille.


METAR-TAF: